sensor_id;sensor_type;location;lat;lon;timestamp;pressure;altitude;pressure_sealevel;temperature;humidity
7962;BME280;4026;43.652;24.906;2023-05-29T00:00:58;99017.34;;;17.11;100.00
7962;BME280;4026;43.652;24.906;2023-05-29T00:03:25;99018.66;;;17.15;100.00
7962;BME280;4026;43.652;24.906;2023-05-29T00:05:52;99019.94;;;17.19;100.00
7962;BME280;4026;43.652;24.906;2023-05-29T00:08:20;99032.53;;;17.14;100.00
7962;BME280;4026;43.652;24.906;2023-05-29T00:10:47;99036.59;;;17.16;100.00
7962;BME280;4026;43.652;24.906;2023-05-29T00:13:14;99027.38;;;17.14;100.00
7962;BME280;4026;43.652;24.906;2023-05-29T00:15:41;99030.41;;;17.09;100.00
7962;BME280;4026;43.652;24.906;2023-05-29T00:18:07;99029.59;;;17.09;100.00
7962;BME280;4026;43.652;24.906;2023-05-29T00:20:34;99034.75;;;17.09;100.00
7962;BME280;4026;43.652;24.906;2023-05-29T00:23:01;99025.84;;;17.03;100.00
7962;BME280;4026;43.652;24.906;2023-05-29T00:25:31;99035.69;;;17.00;100.00
7962;BME280;4026;43.652;24.906;2023-05-29T00:27:58;99032.31;;;16.99;100.00
7962;BME280;4026;43.652;24.906;2023-05-29T00:30:25;99032.13;;;17.01;100.00
7962;BME280;4026;43.652;24.906;2023-05-29T00:32:52;99037.78;;;17.04;100.00
7962;BME280;4026;43.652;24.906;2023-05-29T00:35:19;99035.06;;;17.06;100.00
7962;BME280;4026;43.652;24.906;2023-05-29T00:37:46;99030.88;;;17.05;100.00
7962;BME280;4026;43.652;24.906;2023-05-29T00:40:13;99037.00;;;17.04;100.00
7962;BME280;4026;43.652;24.906;2023-05-29T00:42:41;99036.34;;;17.02;100.00
7962;BME280;4026;43.652;24.906;2023-05-29T00:45:08;99035.28;;;16.86;100.00
7962;BME280;4026;43.652;24.906;2023-05-29T00:47:36;99035.75;;;16.82;100.00
7962;BME280;4026;43.652;24.906;2023-05-29T00:50:04;99036.06;;;16.87;100.00
7962;BME280;4026;43.652;24.906;2023-05-29T00:52:31;99036.91;;;16.87;100.00
7962;BME280;4026;43.652;24.906;2023-05-29T00:54:58;99038.84;;;16.85;100.00
7962;BME280;4026;43.652;24.906;2023-05-29T00:57:28;99037.84;;;16.86;100.00
7962;BME280;4026;43.652;24.906;2023-05-29T00:59:57;99035.75;;;16.82;100.00
7962;BME280;4026;43.652;24.906;2023-05-29T01:02:25;99032.91;;;16.75;100.00
7962;BME280;4026;43.652;24.906;2023-05-29T01:04:54;99037.28;;;16.74;100.00
7962;BME280;4026;43.652;24.906;2023-05-29T01:07:21;99034.84;;;16.73;100.00
7962;BME280;4026;43.652;24.906;2023-05-29T01:09:48;99037.28;;;16.74;100.00
7962;BME280;4026;43.652;24.906;2023-05-29T01:12:23;99034.84;;;16.73;100.00
7962;BME280;4026;43.652;24.906;2023-05-29T01:15:04;99042.91;;;16.70;100.00
7962;BME280;4026;43.652;24.906;2023-05-29T01:17:42;99034.63;;;16.66;100.00
7962;BME280;4026;43.652;24.906;2023-05-29T01:20:18;99031.91;;;16.68;100.00
7962;BME280;4026;43.652;24.906;2023-05-29T01:23:07;99030.81;;;16.70;100.00
7962;BME280;4026;43.652;24.906;2023-05-29T01:25:50;99036.09;;;16.69;100.00
7962;BME280;4026;43.652;24.906;2023-05-29T01:28:26;99030.00;;;16.70;100.00
7962;BME280;4026;43.652;24.906;2023-05-29T01:30:54;99030.00;;;16.70;100.00
7962;BME280;4026;43.652;24.906;2023-05-29T01:33:21;99024.16;;;16.68;100.00
7962;BME280;4026;43.652;24.906;2023-05-29T01:35:48;99021.88;;;16.65;100.00
7962;BME280;4026;43.652;24.906;2023-05-29T01:38:14;99019.97;;;16.67;100.00
7962;BME280;4026;43.652;24.906;2023-05-29T01:40:41;99020.91;;;16.66;100.00
7962;BME280;4026;43.652;24.906;2023-05-29T01:43:08;99017.03;;;16.62;100.00
7962;BME280;4026;43.652;24.906;2023-05-29T01:45:37;99019.75;;;16.60;100.00
7962;BME280;4026;43.652;24.906;2023-05-29T01:48:05;99010.84;;;16.55;100.00
7962;BME280;4026;43.652;24.906;2023-05-29T01:50:32;99012.09;;;16.50;100.00
7962;BME280;4026;43.652;24.906;2023-05-29T01:53:01;99011.75;;;16.45;100.00
7962;BME280;4026;43.652;24.906;2023-05-29T01:55:27;99012.03;;;16.42;100.00
7962;BME280;4026;43.652;24.906;2023-05-29T01:57:55;99012.34;;;16.39;100.00
7962;BME280;4026;43.652;24.906;2023-05-29T02:00:22;99010.06;;;16.36;100.00
7962;BME280;4026;43.652;24.906;2023-05-29T02:02:50;99001.00;;;16.32;100.00
7962;BME280;4026;43.652;24.906;2023-05-29T02:05:17;98998.06;;;16.27;100.00
7962;BME280;4026;43.652;24.906;2023-05-29T02:07:44;98999.16;;;16.24;100.00
7962;BME280;4026;43.652;24.906;2023-05-29T02:10:11;99001.25;;;16.21;100.00
7962;BME280;4026;43.652;24.906;2023-05-29T02:12:38;99003.16;;;16.19;100.00
7962;BME280;4026;43.652;24.906;2023-05-29T02:15:06;99000.88;;;16.16;100.00
7962;BME280;4026;43.652;24.906;2023-05-29T02:17:33;99009.03;;;16.11;100.00
7962;BME280;4026;43.652;24.906;2023-05-29T02:20:01;99006.75;;;16.08;100.00
7962;BME280;4026;43.652;24.906;2023-05-29T02:22:30;99010.44;;;16.05;100.00
7962;BME280;4026;43.652;24.906;2023-05-29T02:24:56;99004.47;;;16.05;100.00
7962;BME280;4026;43.652;24.906;2023-05-29T02:27:23;99004.78;;;16.02;100.00
7962;BME280;4026;43.652;24.906;2023-05-29T02:29:50;99013.63;;;15.99;100.00
7962;BME280;4026;43.652;24.906;2023-05-29T02:32:17;99018.94;;;15.98;100.00
7962;BME280;4026;43.652;24.906;2023-05-29T02:34:45;99019.22;;;15.95;100.00
7962;BME280;4026;43.652;24.906;2023-05-29T02:37:13;99014.88;;;15.95;100.00
7962;BME280;4026;43.652;24.906;2023-05-29T02:39:40;99012.97;;;15.97;100.00
7962;BME280;4026;43.652;24.906;2023-05-29T02:42:07;99006.47;;;15.93;100.00
7962;BME280;4026;43.652;24.906;2023-05-29T02:44:34;99017.06;;;15.90;100.00
7962;BME280;4026;43.652;24.906;2023-05-29T02:47:01;99022.09;;;15.92;100.00
7962;BME280;4026;43.652;24.906;2023-05-29T02:49:28;99023.88;;;15.91;100.00
7962;BME280;4026;43.652;24.906;2023-05-29T02:51:55;99013.56;;;15.91;100.00
7962;BME280;4026;43.652;24.906;2023-05-29T02:54:23;99016.78;;;15.93;100.00
7962;BME280;4026;43.652;24.906;2023-05-29T02:56:50;99023.72;;;15.93;100.00
7962;BME280;4026;43.652;24.906;2023-05-29T02:59:17;99025.19;;;15.95;100.00
7962;BME280;4026;43.652;24.906;2023-05-29T03:01:44;99015.38;;;15.99;100.00
7962;BME280;4026;43.652;24.906;2023-05-29T03:04:12;99011.88;;;16.00;100.00
7962;BME280;4026;43.652;24.906;2023-05-29T03:06:39;99028.50;;;16.05;100.00
7962;BME280;4026;43.652;24.906;2023-05-29T03:09:06;99017.63;;;16.12;100.00
7962;BME280;4026;43.652;24.906;2023-05-29T03:11:34;99021.81;;;16.13;100.00
7962;BME280;4026;43.652;24.906;2023-05-29T03:14:03;99031.31;;;16.12;100.00
7962;BME280;4026;43.652;24.906;2023-05-29T03:16:30;99032.13;;;16.13;100.00
7962;BME280;4026;43.652;24.906;2023-05-29T03:18:57;99033.72;;;16.14;100.00
7962;BME280;4026;43.652;24.906;2023-05-29T03:21:24;99027.63;;;16.15;100.00
7962;BME280;4026;43.652;24.906;2023-05-29T03:23:51;99030.72;;;16.18;100.00
7962;BME280;4026;43.652;24.906;2023-05-29T03:26:18;99027.84;;;16.21;100.00
7962;BME280;4026;43.652;24.906;2023-05-29T03:28:46;99030.13;;;16.24;100.00
7962;BME280;4026;43.652;24.906;2023-05-29T03:31:13;99031.31;;;16.30;100.00
7962;BME280;4026;43.652;24.906;2023-05-29T03:33:39;99035.19;;;16.34;100.00
7962;BME280;4026;43.652;24.906;2023-05-29T03:36:07;99040.06;;;16.37;100.00
7962;BME280;4026;43.652;24.906;2023-05-29T03:38:34;99035.94;;;16.44;100.00
7962;BME280;4026;43.652;24.906;2023-05-29T03:41:01;99043.06;;;16.50;100.00
7962;BME280;4026;43.652;24.906;2023-05-29T03:43:28;99036.34;;;16.58;100.00
7962;BME280;4026;43.652;24.906;2023-05-29T03:45:56;99041.94;;;16.71;100.00
7962;BME280;4026;43.652;24.906;2023-05-29T03:48:23;99046.53;;;16.77;100.00
7962;BME280;4026;43.652;24.906;2023-05-29T03:50:49;99044.13;;;16.84;100.00
7962;BME280;4026;43.652;24.906;2023-05-29T03:53:16;99046.47;;;16.95;100.00
7962;BME280;4026;43.652;24.906;2023-05-29T03:55:43;99049.91;;;17.04;100.00
7962;BME280;4026;43.652;24.906;2023-05-29T03:58:10;99055.44;;;17.09;100.00
7962;BME280;4026;43.652;24.906;2023-05-29T04:00:37;99059.66;;;17.18;100.00
7962;BME280;4026;43.652;24.906;2023-05-29T04:03:06;99054.19;;;17.21;100.00
7962;BME280;4026;43.652;24.906;2023-05-29T04:05:33;99057.13;;;17.26;100.00
7962;BME280;4026;43.652;24.906;2023-05-29T04:08:00;99059.75;;;17.34;100.00
7962;BME280;4026;43.652;24.906;2023-05-29T04:10:29;99068.16;;;17.36;100.00
7962;BME280;4026;43.652;24.906;2023-05-29T04:12:59;99065.91;;;17.41;100.00
7962;BME280;4026;43.652;24.906;2023-05-29T04:15:26;99069.00;;;17.45;100.00
7962;BME280;4026;43.652;24.906;2023-05-29T04:17:53;99073.06;;;17.48;100.00
7962;BME280;4026;43.652;24.906;2023-05-29T04:20:22;99074.19;;;17.53;100.00
7962;BME280;4026;43.652;24.906;2023-05-29T04:22:48;99074.69;;;17.57;100.00
7962;BME280;4026;43.652;24.906;2023-05-29T04:25:15;99078.59;;;17.61;100.00
7962;BME280;4026;43.652;24.906;2023-05-29T04:27:43;99078.13;;;17.65;100.00
7962;BME280;4026;43.652;24.906;2023-05-29T04:30:14;99081.84;;;17.71;100.00
7962;BME280;4026;43.652;24.906;2023-05-29T04:32:42;99085.41;;;17.70;100.00
7962;BME280;4026;43.652;24.906;2023-05-29T04:35:09;99088.19;;;17.77;100.00
7962;BME280;4026;43.652;24.906;2023-05-29T04:37:37;99077.91;;;17.85;100.00
7962;BME280;4026;43.652;24.906;2023-05-29T04:40:06;99081.00;;;17.97;100.00
7962;BME280;4026;43.652;24.906;2023-05-29T04:42:34;99083.75;;;18.03;100.00
7962;BME280;4026;43.652;24.906;2023-05-29T04:45:02;99084.44;;;18.22;100.00
7962;BME280;4026;43.652;24.906;2023-05-29T04:47:30;99096.91;;;18.26;100.00
7962;BME280;4026;43.652;24.906;2023-05-29T04:49:58;99097.91;;;18.42;100.00
7962;BME280;4026;43.652;24.906;2023-05-29T04:52:25;99093.38;;;18.52;100.00
7962;BME280;4026;43.652;24.906;2023-05-29T04:54:56;99104.38;;;18.54;100.00
7962;BME280;4026;43.652;24.906;2023-05-29T04:57:23;99099.19;;;18.54;100.00
7962;BME280;4026;43.652;24.906;2023-05-29T04:59:51;99096.28;;;18.65;100.00
7962;BME280;4026;43.652;24.906;2023-05-29T05:02:17;99107.59;;;18.72;100.00
7962;BME280;4026;43.652;24.906;2023-05-29T05:04:44;99110.56;;;18.86;100.00
7962;BME280;4026;43.652;24.906;2023-05-29T05:07:12;99110.19;;;19.05;100.00
7962;BME280;4026;43.652;24.906;2023-05-29T05:09:41;99109.03;;;19.16;100.00
7962;BME280;4026;43.652;24.906;2023-05-29T05:12:09;99117.94;;;19.30;100.00
7962;BME280;4026;43.652;24.906;2023-05-29T05:14:36;99114.31;;;19.39;100.00
7962;BME280;4026;43.652;24.906;2023-05-29T05:17:03;99131.50;;;19.40;100.00
7962;BME280;4026;43.652;24.906;2023-05-29T05:19:30;99134.88;;;19.49;100.00
7962;BME280;4026;43.652;24.906;2023-05-29T05:21:57;99130.66;;;19.56;100.00
7962;BME280;4026;43.652;24.906;2023-05-29T05:24:23;99130.28;;;19.75;100.00
7962;BME280;4026;43.652;24.906;2023-05-29T05:26:50;99135.06;;;19.95;100.00
7962;BME280;4026;43.652;24.906;2023-05-29T05:29:19;99134.03;;;20.04;100.00
7962;BME280;4026;43.652;24.906;2023-05-29T05:31:46;99129.25;;;20.16;100.00
7962;BME280;4026;43.652;24.906;2023-05-29T05:34:13;99132.50;;;20.18;100.00
7962;BME280;4026;43.652;24.906;2023-05-29T05:36:39;99129.50;;;20.29;100.00
7962;BME280;4026;43.652;24.906;2023-05-29T05:39:06;99129.13;;;20.40;100.00
7962;BME280;4026;43.652;24.906;2023-05-29T05:41:33;99126.16;;;20.43;100.00
7962;BME280;4026;43.652;24.906;2023-05-29T05:44:00;99122.31;;;20.39;100.00
7962;BME280;4026;43.652;24.906;2023-05-29T05:46:28;99124.63;;;20.34;100.00
7962;BME280;4026;43.652;24.906;2023-05-29T05:48:55;99117.88;;;20.25;100.00
7962;BME280;4026;43.652;24.906;2023-05-29T05:51:23;99122.63;;;20.36;100.00
7962;BME280;4026;43.652;24.906;2023-05-29T05:53:50;99121.28;;;20.48;100.00
7962;BME280;4026;43.652;24.906;2023-05-29T05:56:17;99129.25;;;20.70;100.00
7962;BME280;4026;43.652;24.906;2023-05-29T05:58:44;99124.75;;;21.01;100.00
7962;BME280;4026;43.652;24.906;2023-05-29T06:01:10;99136.22;;;21.07;100.00
7962;BME280;4026;43.652;24.906;2023-05-29T06:03:39;99134.66;;;21.36;100.00
7962;BME280;4026;43.652;24.906;2023-05-29T06:06:06;99143.19;;;21.44;100.00
7962;BME280;4026;43.652;24.906;2023-05-29T06:08:34;99145.16;;;21.42;100.00
7962;BME280;4026;43.652;24.906;2023-05-29T06:11:01;99144.72;;;21.39;100.00
7962;BME280;4026;43.652;24.906;2023-05-29T06:13:27;99150.34;;;21.28;100.00
7962;BME280;4026;43.652;24.906;2023-05-29T06:15:54;99152.00;;;21.20;100.00
7962;BME280;4026;43.652;24.906;2023-05-29T06:18:21;99153.78;;;21.05;100.00
7962;BME280;4026;43.652;24.906;2023-05-29T06:20:50;99148.03;;;20.95;100.00
7962;BME280;4026;43.652;24.906;2023-05-29T06:23:17;99156.16;;;20.77;100.00
7962;BME280;4026;43.652;24.906;2023-05-29T06:25:43;99156.56;;;20.66;100.00
7962;BME280;4026;43.652;24.906;2023-05-29T06:28:10;99160.13;;;20.65;100.00
7962;BME280;4026;43.652;24.906;2023-05-29T06:30:38;99153.69;;;20.61;100.00
7962;BME280;4026;43.652;24.906;2023-05-29T06:33:05;99163.28;;;20.52;100.00
7962;BME280;4026;43.652;24.906;2023-05-29T06:35:32;99154.03;;;20.49;100.00
7962;BME280;4026;43.652;24.906;2023-05-29T06:38:00;99151.44;;;20.49;100.00
7962;BME280;4026;43.652;24.906;2023-05-29T06:40:28;99148.84;;;20.49;100.00
7962;BME280;4026;43.652;24.906;2023-05-29T06:42:54;99152.69;;;20.62;100.00
7962;BME280;4026;43.652;24.906;2023-05-29T06:45:21;99154.16;;;20.79;100.00
7962;BME280;4026;43.652;24.906;2023-05-29T06:47:48;99154.59;;;21.06;100.00
7962;BME280;4026;43.652;24.906;2023-05-29T06:50:15;99156.22;;;21.07;100.00
7962;BME280;4026;43.652;24.906;2023-05-29T06:52:41;99151.19;;;21.05;100.00
7962;BME280;4026;43.652;24.906;2023-05-29T06:55:10;99139.50;;;20.86;100.00
7962;BME280;4026;43.652;24.906;2023-05-29T06:57:36;99151.16;;;20.90;100.00
7962;BME280;4026;43.652;24.906;2023-05-29T07:00:04;99151.81;;;20.92;100.00
7962;BME280;4026;43.652;24.906;2023-05-29T07:02:31;99147.41;;;20.93;100.00
7962;BME280;4026;43.652;24.906;2023-05-29T07:04:58;99145.06;;;20.83;100.00
7962;BME280;4026;43.652;24.906;2023-05-29T07:07:25;99146.66;;;20.84;100.00
7962;BME280;4026;43.652;24.906;2023-05-29T07:09:52;99146.56;;;20.77;100.00
7962;BME280;4026;43.652;24.906;2023-05-29T07:12:21;99151.50;;;20.87;100.00
7962;BME280;4026;43.652;24.906;2023-05-29T07:14:48;99147.56;;;20.91;100.00
7962;BME280;4026;43.652;24.906;2023-05-29T07:17:15;99142.19;;;20.78;100.00
7962;BME280;4026;43.652;24.906;2023-05-29T07:19:42;99140.22;;;20.80;100.00
7962;BME280;4026;43.652;24.906;2023-05-29T07:22:09;99149.50;;;20.74;100.00
7962;BME280;4026;43.652;24.906;2023-05-29T07:24:35;99150.66;;;20.72;100.00
7962;BME280;4026;43.652;24.906;2023-05-29T07:27:02;99151.63;;;20.71;100.00
7962;BME280;4026;43.652;24.906;2023-05-29T07:29:31;99153.72;;;20.75;100.00
7962;BME280;4026;43.652;24.906;2023-05-29T07:31:58;99159.38;;;20.79;100.00
7962;BME280;4026;43.652;24.906;2023-05-29T07:34:24;99149.91;;;20.86;100.00
7962;BME280;4026;43.652;24.906;2023-05-29T07:36:59;99147.78;;;21.05;100.00
7962;BME280;4026;43.652;24.906;2023-05-29T07:39:26;99159.91;;;21.12;100.00
7962;BME280;4026;43.652;24.906;2023-05-29T07:41:53;99151.84;;;21.22;100.00
7962;BME280;4026;43.652;24.906;2023-05-29T07:44:20;99148.91;;;21.55;100.00
7962;BME280;4026;43.652;24.906;2023-05-29T07:46:48;99151.16;;;21.73;100.00
7962;BME280;4026;43.652;24.906;2023-05-29T07:49:15;99153.63;;;21.96;100.00
7962;BME280;4026;43.652;24.906;2023-05-29T07:51:42;99166.66;;;21.96;100.00
7962;BME280;4026;43.652;24.906;2023-05-29T07:54:08;99165.22;;;21.78;100.00
7962;BME280;4026;43.652;24.906;2023-05-29T07:56:36;99158.72;;;21.67;100.00
7962;BME280;4026;43.652;24.906;2023-05-29T07:59:02;99157.88;;;21.67;100.00
7962;BME280;4026;43.652;24.906;2023-05-29T08:01:29;99157.31;;;22.01;100.00
7962;BME280;4026;43.652;24.906;2023-05-29T08:03:57;99159.06;;;22.30;100.00
7962;BME280;4026;43.652;24.906;2023-05-29T08:06:24;99149.66;;;22.72;100.00
7962;BME280;4026;43.652;24.906;2023-05-29T08:08:51;99158.28;;;23.22;100.00
7962;BME280;4026;43.652;24.906;2023-05-29T08:11:18;99151.06;;;23.59;99.98
7962;BME280;4026;43.652;24.906;2023-05-29T08:13:45;99160.22;;;23.83;98.27
7962;BME280;4026;43.652;24.906;2023-05-29T08:16:12;99151.69;;;24.09;100.00
7962;BME280;4026;43.652;24.906;2023-05-29T08:18:39;99160.84;;;24.47;96.49
7962;BME280;4026;43.652;24.906;2023-05-29T08:21:08;99162.84;;;24.58;95.89
7962;BME280;4026;43.652;24.906;2023-05-29T08:23:35;99160.66;;;24.68;87.62
7962;BME280;4026;43.652;24.906;2023-05-29T08:26:02;99166.06;;;24.53;89.31
7962;BME280;4026;43.652;24.906;2023-05-29T08:28:29;99157.03;;;24.89;93.10
7962;BME280;4026;43.652;24.906;2023-05-29T08:30:56;99159.84;;;25.01;88.36
7962;BME280;4026;43.652;24.906;2023-05-29T08:33:23;99158.63;;;24.63;82.60
7962;BME280;4026;43.652;24.906;2023-05-29T08:35:50;99156.63;;;24.66;86.30
7962;BME280;4026;43.652;24.906;2023-05-29T08:38:19;99157.63;;;24.91;88.14
7962;BME280;4026;43.652;24.906;2023-05-29T08:40:47;99157.22;;;25.01;92.77
7962;BME280;4026;43.652;24.906;2023-05-29T08:43:16;99152.22;;;24.99;88.57
7962;BME280;4026;43.652;24.906;2023-05-29T08:45:45;99158.22;;;24.87;84.91
7962;BME280;4026;43.652;24.906;2023-05-29T08:48:12;99151.59;;;24.97;84.86
7962;BME280;4026;43.652;24.906;2023-05-29T08:50:43;99156.44;;;24.94;89.45
7962;BME280;4026;43.652;24.906;2023-05-29T08:53:12;99148.78;;;25.05;90.47
7962;BME280;4026;43.652;24.906;2023-05-29T08:55:41;99151.38;;;25.19;84.21
7962;BME280;4026;43.652;24.906;2023-05-29T08:58:08;99154.94;;;25.51;88.03
7962;BME280;4026;43.652;24.906;2023-05-29T09:00:36;99151.84;;;25.74;88.92
7962;BME280;4026;43.652;24.906;2023-05-29T09:03:03;99147.50;;;25.48;85.94
7962;BME280;4026;43.652;24.906;2023-05-29T09:05:30;99162.41;;;25.47;86.20
7962;BME280;4026;43.652;24.906;2023-05-29T09:07:58;99160.63;;;25.41;86.15
7962;BME280;4026;43.652;24.906;2023-05-29T09:10:25;99149.59;;;24.99;84.02
7962;BME280;4026;43.652;24.906;2023-05-29T09:12:54;99150.78;;;25.10;87.96
7962;BME280;4026;43.652;24.906;2023-05-29T09:15:22;99146.75;;;25.21;85.84
7962;BME280;4026;43.652;24.906;2023-05-29T09:17:50;99140.72;;;25.00;84.04
7962;BME280;4026;43.652;24.906;2023-05-29T09:20:19;99139.13;;;25.06;89.06
7962;BME280;4026;43.652;24.906;2023-05-29T09:22:53;99135.25;;;25.35;87.12
7962;BME280;4026;43.652;24.906;2023-05-29T09:25:21;99135.28;;;25.22;83.86
7962;BME280;4026;43.652;24.906;2023-05-29T09:27:51;99131.03;;;25.34;85.71
7962;BME280;4026;43.652;24.906;2023-05-29T09:30:34;99131.19;;;25.52;89.16
7962;BME280;4026;43.652;24.906;2023-05-29T09:33:01;99131.78;;;25.55;81.82
7962;BME280;4026;43.652;24.906;2023-05-29T09:35:33;99130.56;;;25.50;82.63
7962;BME280;4026;43.652;24.906;2023-05-29T09:38:00;99123.34;;;25.39;84.48
7962;BME280;4026;43.652;24.906;2023-05-29T09:40:29;99112.41;;;25.62;87.63
7962;BME280;4026;43.652;24.906;2023-05-29T09:43:02;99117.91;;;25.47;83.65
7962;BME280;4026;43.652;24.906;2023-05-29T09:45:30;99114.53;;;25.40;84.36
7962;BME280;4026;43.652;24.906;2023-05-29T09:47:58;99106.09;;;25.12;78.89
7962;BME280;4026;43.652;24.906;2023-05-29T09:50:26;99108.97;;;24.90;85.83
7962;BME280;4026;43.652;24.906;2023-05-29T09:52:54;99110.97;;;24.81;86.03
7962;BME280;4026;43.652;24.906;2023-05-29T09:55:21;99105.34;;;24.65;86.48
7962;BME280;4026;43.652;24.906;2023-05-29T09:57:53;99104.13;;;24.54;86.03
7962;BME280;4026;43.652;24.906;2023-05-29T10:00:20;99100.28;;;24.36;87.62
7962;BME280;4026;43.652;24.906;2023-05-29T10:02:47;99100.28;;;24.36;90.12
7962;BME280;4026;43.652;24.906;2023-05-29T10:05:16;99117.34;;;24.19;87.72
7962;BME280;4026;43.652;24.906;2023-05-29T10:07:44;99112.47;;;24.03;88.76
7962;BME280;4026;43.652;24.906;2023-05-29T10:10:13;99114.81;;;23.78;92.72
7962;BME280;4026;43.652;24.906;2023-05-29T10:12:44;99119.19;;;23.36;96.60
7962;BME280;4026;43.652;24.906;2023-05-29T10:15:15;99107.56;;;23.03;100.00
7962;BME280;4026;43.652;24.906;2023-05-29T10:17:53;99108.91;;;22.71;100.00
7962;BME280;4026;43.652;24.906;2023-05-29T10:20:26;99110.38;;;22.52;100.00
7962;BME280;4026;43.652;24.906;2023-05-29T10:22:56;99097.81;;;22.34;100.00
7962;BME280;4026;43.652;24.906;2023-05-29T10:25:27;99098.09;;;22.25;100.00
7962;BME280;4026;43.652;24.906;2023-05-29T10:27:54;99103.06;;;22.05;100.00
7962;BME280;4026;43.652;24.906;2023-05-29T10:30:29;99098.78;;;21.97;100.00
7962;BME280;4026;43.652;24.906;2023-05-29T10:33:14;99090.91;;;21.90;100.00
7962;BME280;4026;43.652;24.906;2023-05-29T10:35:53;99081.59;;;21.81;100.00
7962;BME280;4026;43.652;24.906;2023-05-29T10:38:22;99075.03;;;21.85;100.00
7962;BME280;4026;43.652;24.906;2023-05-29T10:40:49;99073.31;;;21.92;100.00
7962;BME280;4026;43.652;24.906;2023-05-29T10:43:37;99068.97;;;22.00;100.00
7962;BME280;4026;43.652;24.906;2023-05-29T10:46:05;99069.34;;;21.97;100.00
7962;BME280;4026;43.652;24.906;2023-05-29T10:48:49;99065.75;;;21.98;100.00
7962;BME280;4026;43.652;24.906;2023-05-29T10:51:29;99055.84;;;22.08;100.00
7962;BME280;4026;43.652;24.906;2023-05-29T10:53:58;99053.22;;;22.23;100.00
7962;BME280;4026;43.652;24.906;2023-05-29T10:56:28;99057.47;;;22.30;100.00
7962;BME280;4026;43.652;24.906;2023-05-29T10:58:58;99053.72;;;22.40;100.00
7962;BME280;4026;43.652;24.906;2023-05-29T11:01:27;99050.41;;;22.46;100.00
7962;BME280;4026;43.652;24.906;2023-05-29T11:04:30;99047.47;;;22.55;100.00
7962;BME280;4026;43.652;24.906;2023-05-29T11:07:01;99045.22;;;22.80;100.00
7962;BME280;4026;43.652;24.906;2023-05-29T11:09:32;99042.91;;;22.92;100.00
7962;BME280;4026;43.652;24.906;2023-05-29T11:12:14;99038.59;;;23.06;100.00
7962;BME280;4026;43.652;24.906;2023-05-29T11:14:54;99035.06;;;23.27;100.00
7962;BME280;4026;43.652;24.906;2023-05-29T11:17:29;99033.56;;;23.46;100.00
7962;BME280;4026;43.652;24.906;2023-05-29T11:19:56;99040.28;;;23.75;100.00
7962;BME280;4026;43.652;24.906;2023-05-29T11:25:21;99028.31;;;24.27;100.00
7962;BME280;4026;43.652;24.906;2023-05-29T11:27:47;99026.91;;;24.58;100.00
7962;BME280;4026;43.652;24.906;2023-05-29T11:30:16;99029.75;;;24.70;100.00
7962;BME280;4026;43.652;24.906;2023-05-29T11:32:45;99031.91;;;24.86;98.58
7962;BME280;4026;43.652;24.906;2023-05-29T11:35:12;99024.66;;;24.88;96.27
7962;BME280;4026;43.652;24.906;2023-05-29T11:37:42;99027.84;;;25.03;98.25
7962;BME280;4026;43.652;24.906;2023-05-29T11:40:12;99040.13;;;24.90;97.69
7962;BME280;4026;43.652;24.906;2023-05-29T11:42:41;99037.16;;;24.73;98.61
7962;BME280;4026;43.652;24.906;2023-05-29T11:45:14;99032.16;;;24.38;100.00
7962;BME280;4026;43.652;24.906;2023-05-29T11:47:54;99024.50;;;24.30;100.00
7962;BME280;4026;43.652;24.906;2023-05-29T11:50:22;99021.69;;;24.25;100.00
7962;BME280;4026;43.652;24.906;2023-05-29T11:52:50;99025.72;;;24.21;100.00
7962;BME280;4026;43.652;24.906;2023-05-29T11:55:18;99010.00;;;24.07;100.00
7962;BME280;4026;43.652;24.906;2023-05-29T11:57:46;99004.56;;;24.02;100.00
7962;BME280;4026;43.652;24.906;2023-05-29T12:00:14;98995.16;;;24.01;100.00
7962;BME280;4026;43.652;24.906;2023-05-29T12:02:41;98988.09;;;24.02;100.00
7962;BME280;4026;43.652;24.906;2023-05-29T12:05:09;98988.91;;;24.02;100.00
7962;BME280;4026;43.652;24.906;2023-05-29T12:07:46;98993.34;;;24.02;100.00
7962;BME280;4026;43.652;24.906;2023-05-29T12:10:16;98989.34;;;24.06;100.00
7962;BME280;4026;43.652;24.906;2023-05-29T12:12:47;98986.72;;;24.06;100.00
7962;BME280;4026;43.652;24.906;2023-05-29T12:15:14;98991.13;;;23.99;100.00
7962;BME280;4026;43.652;24.906;2023-05-29T12:17:43;99002.94;;;23.88;100.00
7962;BME280;4026;43.652;24.906;2023-05-29T12:20:11;99004.75;;;23.81;100.00
7962;BME280;4026;43.652;24.906;2023-05-29T12:22:39;99000.34;;;23.88;99.66
7962;BME280;4026;43.652;24.906;2023-05-29T12:25:07;98995.13;;;23.81;96.63
7962;BME280;4026;43.652;24.906;2023-05-29T12:27:37;98993.88;;;23.70;95.91
7962;BME280;4026;43.652;24.906;2023-05-29T12:30:09;98995.66;;;23.63;93.64
7962;BME280;4026;43.652;24.906;2023-05-29T12:32:38;99001.28;;;23.60;92.45
7962;BME280;4026;43.652;24.906;2023-05-29T12:35:17;98997.06;;;23.59;94.96
7962;BME280;4026;43.652;24.906;2023-05-29T12:37:45;99000.66;;;23.58;96.41
7962;BME280;4026;43.652;24.906;2023-05-29T12:40:14;98991.84;;;23.59;95.92
7962;BME280;4026;43.652;24.906;2023-05-29T12:42:43;98983.00;;;23.67;99.46
7962;BME280;4026;43.652;24.906;2023-05-29T12:45:10;98985.66;;;23.73;95.64
7962;BME280;4026;43.652;24.906;2023-05-29T12:47:38;98979.44;;;23.75;88.30
7962;BME280;4026;43.652;24.906;2023-05-29T12:50:21;98973.03;;;23.77;88.74
7962;BME280;4026;43.652;24.906;2023-05-29T12:52:58;98977.06;;;23.80;87.40
7962;BME280;4026;43.652;24.906;2023-05-29T12:55:26;98977.25;;;23.78;86.79
7962;BME280;4026;43.652;24.906;2023-05-29T12:57:55;98979.88;;;23.91;93.29
7962;BME280;4026;43.652;24.906;2023-05-29T13:00:23;98984.69;;;23.94;91.50
7962;BME280;4026;43.652;24.906;2023-05-29T13:02:50;98989.91;;;24.01;90.19
7962;BME280;4026;43.652;24.906;2023-05-29T13:05:17;98995.16;;;24.01;89.40
7962;BME280;4026;43.652;24.906;2023-05-29T13:07:48;98993.34;;;24.02;89.26
7962;BME280;4026;43.652;24.906;2023-05-29T13:10:15;99001.97;;;23.95;85.82
7962;BME280;4026;43.652;24.906;2023-05-29T13:12:42;98995.94;;;23.88;88.36